createdAt,value
2017-06-25T00:00:19.401Z,20.96
2017-06-25T00:01:00.297Z,20.96
2017-06-25T00:01:41.182Z,20.87
2017-06-25T00:02:22.067Z,20.87
2017-06-25T00:03:02.956Z,20.92
2017-06-25T00:03:43.865Z,20.85
2017-06-25T00:04:24.735Z,20.87
2017-06-25T00:05:05.623Z,20.92
2017-06-25T00:05:46.510Z,20.77
2017-06-25T00:06:27.404Z,20.81
2017-06-25T00:07:08.287Z,20.87
2017-06-25T00:07:49.179Z,20.9
2017-06-25T00:08:30.104Z,20.82
2017-06-25T00:09:10.987Z,20.88
2017-06-25T00:09:51.898Z,20.9
2017-06-25T00:10:32.766Z,20.87
2017-06-25T00:11:13.643Z,20.75
2017-06-25T00:11:54.537Z,20.74
2017-06-25T00:12:35.512Z,20.77
2017-06-25T00:13:16.406Z,20.85
2017-06-25T00:13:57.276Z,20.9
2017-06-25T00:14:38.148Z,20.87
2017-06-25T00:15:19.047Z,20.96
2017-06-25T00:15:59.956Z,20.97
2017-06-25T00:16:40.846Z,20.96
2017-06-25T00:17:21.735Z,20.9
2017-06-25T00:18:02.654Z,20.92
2017-06-25T00:18:43.549Z,20.88
2017-06-25T00:19:24.431Z,20.87
2017-06-25T00:20:05.307Z,20.84
2017-06-25T00:20:46.185Z,20.77
2017-06-25T00:21:27.078Z,20.75
2017-06-25T00:22:07.967Z,20.9
2017-06-25T00:22:48.851Z,20.97
2017-06-25T00:23:29.750Z,20.99
2017-06-25T00:24:10.643Z,21.05
2017-06-25T00:24:51.535Z,20.95
2017-06-25T00:25:32.424Z,20.96
2017-06-25T00:26:13.314Z,21.03
2017-06-25T00:26:54.192Z,21.02
2017-06-25T00:27:35.075Z,21.21
2017-06-25T00:28:15.974Z,21.18
2017-06-25T00:28:56.862Z,21.18
2017-06-25T00:29:37.747Z,21.14
2017-06-25T00:30:18.637Z,21.09
2017-06-25T00:30:59.535Z,21.06
2017-06-25T00:31:40.426Z,21.17
2017-06-25T00:32:21.317Z,21.11
2017-06-25T00:33:02.218Z,21.02
2017-06-25T00:33:43.100Z,21.02
2017-06-25T00:34:23.991Z,21.02
2017-06-25T00:35:04.891Z,20.97
2017-06-25T00:35:46.329Z,20.87
2017-06-25T00:36:27.231Z,20.9
2017-06-25T00:37:08.125Z,20.82
2017-06-25T00:37:49.015Z,20.77
2017-06-25T00:38:29.903Z,20.81
2017-06-25T00:39:10.796Z,20.82
2017-06-25T00:39:51.703Z,20.72
2017-06-25T00:40:32.591Z,20.7
2017-06-25T00:41:13.477Z,20.81
2017-06-25T00:41:54.384Z,20.7
2017-06-25T00:42:35.257Z,20.72
2017-06-25T00:43:16.127Z,20.7
2017-06-25T00:43:57.017Z,20.81
2017-06-25T00:44:37.934Z,20.81
2017-06-25T00:45:18.796Z,20.93
2017-06-25T00:45:59.705Z,20.75
2017-06-25T00:46:40.595Z,20.69
2017-06-25T00:47:21.457Z,20.92
2017-06-25T00:48:02.338Z,20.92
2017-06-25T00:48:43.240Z,20.72
2017-06-25T00:49:24.136Z,20.84
2017-06-25T00:50:05.008Z,20.84
2017-06-25T00:50:45.894Z,20.81
2017-06-25T00:51:26.790Z,20.78
2017-06-25T00:52:07.672Z,20.78
2017-06-25T00:52:48.535Z,20.74
2017-06-25T00:53:29.435Z,20.78
2017-06-25T00:54:10.316Z,20.74
2017-06-25T00:54:51.218Z,20.72
2017-06-25T00:55:32.094Z,20.72
2017-06-25T00:56:13.000Z,20.72
2017-06-25T00:56:53.883Z,20.77
2017-06-25T00:57:34.751Z,20.66
2017-06-25T00:58:15.642Z,20.65
2017-06-25T00:58:56.538Z,20.62
2017-06-25T00:59:37.417Z,20.66
2017-06-25T01:00:18.298Z,20.62
2017-06-25T01:00:59.175Z,20.58
2017-06-25T01:01:40.072Z,20.59
2017-06-25T01:02:20.950Z,20.62
2017-06-25T01:03:01.838Z,20.63
2017-06-25T01:03:42.725Z,20.67
2017-06-25T01:04:23.620Z,20.59
2017-06-25T01:05:04.505Z,20.44
2017-06-25T01:05:45.402Z,20.58
2017-06-25T01:06:26.295Z,20.51
2017-06-25T01:07:07.183Z,20.52
2017-06-25T01:07:48.071Z,20.62
2017-06-25T01:08:28.970Z,20.62
2017-06-25T01:09:09.850Z,20.69
2017-06-25T01:09:50.746Z,20.51
2017-06-25T01:10:31.645Z,20.6
2017-06-25T01:11:12.520Z,20.66
2017-06-25T01:11:53.455Z,20.59
2017-06-25T01:12:34.308Z,20.67
2017-06-25T01:13:15.196Z,20.62
2017-06-25T01:13:56.089Z,20.62
2017-06-25T01:14:36.991Z,20.7
2017-06-25T01:15:17.876Z,20.7
2017-06-25T01:15:58.741Z,20.75
2017-06-25T01:16:39.640Z,20.72
2017-06-25T01:17:20.528Z,20.75
2017-06-25T01:18:01.424Z,20.75
2017-06-25T01:18:42.310Z,20.81
2017-06-25T01:19:23.203Z,20.75
2017-06-25T01:20:04.124Z,20.62
2017-06-25T01:20:44.966Z,20.66
2017-06-25T01:21:25.878Z,20.72
2017-06-25T01:22:06.755Z,20.77
2017-06-25T01:22:47.643Z,20.74
2017-06-25T01:23:28.536Z,20.58
2017-06-25T01:24:09.418Z,20.63
2017-06-25T01:24:50.306Z,20.62
2017-06-25T01:25:31.200Z,20.58
2017-06-25T01:26:12.091Z,20.6
2017-06-25T01:26:52.989Z,20.59
2017-06-25T01:27:33.882Z,20.74
2017-06-25T01:28:14.779Z,20.72
2017-06-25T01:28:55.678Z,20.75
2017-06-25T01:29:36.562Z,20.74
2017-06-25T01:30:17.480Z,20.75
2017-06-25T01:30:58.382Z,20.72
2017-06-25T01:31:39.266Z,20.66
2017-06-25T01:32:20.168Z,20.58
2017-06-25T01:33:01.079Z,20.55
2017-06-25T01:33:41.966Z,20.62
2017-06-25T01:34:22.860Z,20.63
2017-06-25T01:35:03.776Z,20.59
2017-06-25T01:35:44.635Z,20.62
2017-06-25T01:36:25.529Z,20.65
2017-06-25T01:37:06.411Z,20.59
2017-06-25T01:37:47.306Z,20.59
2017-06-25T01:38:28.191Z,20.62
2017-06-25T01:39:09.100Z,20.59
2017-06-25T01:39:49.987Z,20.5
2017-06-25T01:40:30.873Z,20.47
2017-06-25T01:41:11.757Z,20.51
2017-06-25T01:41:52.665Z,20.52
2017-06-25T01:42:33.548Z,20.47
2017-06-25T01:43:14.430Z,20.55
2017-06-25T01:43:55.323Z,20.58
2017-06-25T01:44:36.241Z,20.62
2017-06-25T01:45:17.096Z,20.81
2017-06-25T01:45:57.989Z,20.75
2017-06-25T01:46:38.850Z,20.75
2017-06-25T01:47:19.741Z,20.74
2017-06-25T01:48:00.618Z,20.78
2017-06-25T01:48:41.500Z,20.66
2017-06-25T01:49:22.385Z,20.74
2017-06-25T01:50:03.270Z,20.65
2017-06-25T01:50:44.150Z,20.65
2017-06-25T01:51:25.042Z,20.74
2017-06-25T01:52:05.943Z,20.66
2017-06-25T01:52:46.831Z,20.66
2017-06-25T01:53:27.709Z,20.6
2017-06-25T01:54:08.590Z,20.7
2017-06-25T01:54:49.480Z,20.63
2017-06-25T01:55:30.369Z,20.72
2017-06-25T01:56:11.277Z,20.69
2017-06-25T01:56:52.151Z,20.82
2017-06-25T01:57:33.043Z,20.75
2017-06-25T01:58:13.933Z,20.72
2017-06-25T01:58:54.796Z,20.66
2017-06-25T01:59:35.684Z,20.72
2017-06-25T02:00:16.564Z,20.63
2017-06-25T02:00:57.450Z,20.56
2017-06-25T02:01:38.343Z,20.62
2017-06-25T02:02:19.226Z,20.51
2017-06-25T02:03:00.100Z,20.5
2017-06-25T02:03:40.999Z,20.43
2017-06-25T02:04:21.915Z,20.56
2017-06-25T02:05:02.774Z,20.36
2017-06-25T02:05:43.679Z,20.47
2017-06-25T02:06:24.560Z,20.47
2017-06-25T02:07:05.453Z,20.41
2017-06-25T02:07:46.344Z,20.36
2017-06-25T02:08:27.246Z,20.4
2017-06-25T02:09:08.137Z,20.29
2017-06-25T02:09:49.046Z,20.24
2017-06-25T02:10:29.898Z,20.28
2017-06-25T02:11:10.777Z,20.22
2017-06-25T02:11:51.657Z,20.28
2017-06-25T02:12:32.532Z,20.31
2017-06-25T02:13:13.424Z,20.11
2017-06-25T02:13:54.298Z,20.19
2017-06-25T02:14:35.182Z,20.19
2017-06-25T02:15:16.079Z,20.22
2017-06-25T02:15:56.983Z,20.28
2017-06-25T02:16:37.858Z,20.28
2017-06-25T02:17:18.752Z,20.24
2017-06-25T02:17:59.647Z,20.28
2017-06-25T02:18:40.534Z,20.36
2017-06-25T02:19:21.418Z,20.29
2017-06-25T02:20:02.306Z,20.41
2017-06-25T02:20:43.199Z,20.47
2017-06-25T02:21:24.094Z,20.51
2017-06-25T02:22:04.979Z,20.52
2017-06-25T02:22:45.871Z,20.32
2017-06-25T02:23:26.764Z,20.44
2017-06-25T02:24:07.645Z,20.52
2017-06-25T02:24:48.538Z,20.47
2017-06-25T02:25:29.428Z,20.5
2017-06-25T02:26:10.306Z,20.5
2017-06-25T02:26:51.194Z,20.21
2017-06-25T02:27:32.080Z,20.16
2017-06-25T02:28:12.972Z,20.21
2017-06-25T02:28:53.871Z,20.29
2017-06-25T02:29:34.762Z,20.29
2017-06-25T02:30:15.653Z,20.25
2017-06-25T02:30:56.540Z,20.18
2017-06-25T02:31:37.430Z,20.19
2017-06-25T02:32:18.324Z,20.19
2017-06-25T02:32:59.212Z,20.16
2017-06-25T02:33:40.112Z,20.07
2017-06-25T02:34:21.017Z,20.07
2017-06-25T02:35:01.901Z,20.06
2017-06-25T02:35:42.786Z,20.11
2017-06-25T02:36:23.679Z,20.07
2017-06-25T02:37:04.572Z,20.06
2017-06-25T02:37:45.450Z,20.07
2017-06-25T02:38:26.351Z,20.06
2017-06-25T02:39:07.231Z,20.09
2017-06-25T02:39:48.115Z,20.1
2017-06-25T02:40:29.013Z,20.07
2017-06-25T02:41:09.905Z,20.1
2017-06-25T02:41:50.792Z,20.07
2017-06-25T02:42:31.685Z,20.07
2017-06-25T02:43:12.582Z,20.06
2017-06-25T02:43:53.472Z,20.1
2017-06-25T02:44:34.354Z,20.1
2017-06-25T02:45:15.256Z,19.95
2017-06-25T02:45:56.137Z,19.95
2017-06-25T02:46:37.039Z,20.1
2017-06-25T02:47:17.934Z,20.11
2017-06-25T02:47:58.815Z,20.09
2017-06-25T02:48:39.714Z,20.1
2017-06-25T02:49:20.596Z,20.14
2017-06-25T02:50:01.480Z,20.06
2017-06-25T02:50:42.365Z,20.06
2017-06-25T02:51:23.266Z,20.1
2017-06-25T02:52:04.154Z,20.13
2017-06-25T02:52:45.033Z,20.14
2017-06-25T02:53:25.931Z,20.13
2017-06-25T02:54:06.831Z,20.04
2017-06-25T02:54:47.720Z,20.03
2017-06-25T02:55:28.624Z,20.02
2017-06-25T02:56:09.506Z,20.18
2017-06-25T02:56:50.386Z,20.22
2017-06-25T02:57:31.277Z,20.29
2017-06-25T02:58:12.191Z,20.37
2017-06-25T02:58:53.045Z,20.39
2017-06-25T02:59:33.954Z,20.13
2017-06-25T03:00:14.836Z,20.26
2017-06-25T03:00:55.721Z,20.21
2017-06-25T03:01:36.616Z,19.99
2017-06-25T03:02:17.487Z,20.07
2017-06-25T03:02:58.377Z,20.18
2017-06-25T03:03:39.246Z,20.21
2017-06-25T03:04:20.130Z,20.21
2017-06-25T03:05:01.022Z,20.13
2017-06-25T03:05:41.912Z,20.14
2017-06-25T03:06:22.792Z,20.03
2017-06-25T03:07:03.679Z,19.86
2017-06-25T03:07:44.575Z,19.86
2017-06-25T03:08:25.457Z,19.84
2017-06-25T03:09:06.341Z,19.73
2017-06-25T03:09:47.231Z,19.55
2017-06-25T03:10:28.120Z,19.58
2017-06-25T03:11:09.006Z,19.55
2017-06-25T03:11:49.902Z,19.64
2017-06-25T03:12:30.782Z,19.44
2017-06-25T03:13:11.676Z,19.45
2017-06-25T03:13:52.539Z,19.37
2017-06-25T03:14:33.415Z,19.34
2017-06-25T03:15:14.309Z,19.4
2017-06-25T03:15:55.203Z,19.47
2017-06-25T03:16:36.087Z,19.48
2017-06-25T03:17:16.976Z,19.51
2017-06-25T03:17:57.867Z,19.47
2017-06-25T03:18:38.741Z,19.45
2017-06-25T03:19:19.619Z,19.49
2017-06-25T03:20:00.504Z,19.52
2017-06-25T03:20:41.390Z,19.47
2017-06-25T03:21:22.278Z,19.51
2017-06-25T03:22:03.157Z,19.37
2017-06-25T03:22:44.043Z,19.49
2017-06-25T03:23:24.953Z,19.56
2017-06-25T03:24:05.840Z,19.52
2017-06-25T03:24:46.717Z,19.51
2017-06-25T03:25:27.598Z,19.45
2017-06-25T03:26:08.507Z,19.49
2017-06-25T03:26:49.395Z,19.45
2017-06-25T03:27:30.290Z,19.37
2017-06-25T03:28:11.185Z,19.85
2017-06-25T03:28:52.061Z,19.66
2017-06-25T03:29:32.959Z,19.63
2017-06-25T03:30:13.856Z,19.7
2017-06-25T03:30:54.738Z,19.55
2017-06-25T03:31:35.626Z,19.63
2017-06-25T03:32:16.506Z,19.73
2017-06-25T03:32:57.390Z,19.73
2017-06-25T03:33:38.289Z,19.45
2017-06-25T03:34:19.177Z,19.33
2017-06-25T03:35:00.066Z,19.26
2017-06-25T03:35:40.950Z,19.27
2017-06-25T03:36:21.887Z,19.37
2017-06-25T03:37:02.765Z,19.34
2017-06-25T03:37:43.651Z,19.29
2017-06-25T03:38:24.545Z,19.37
2017-06-25T03:39:05.436Z,19.34
2017-06-25T03:39:46.347Z,19.3
2017-06-25T03:40:27.217Z,19.4
2017-06-25T03:41:08.099Z,19.26
2017-06-25T03:41:49.000Z,19.29
2017-06-25T03:42:29.891Z,19.3
2017-06-25T03:43:10.790Z,19.27
2017-06-25T03:43:51.687Z,19.27
2017-06-25T03:44:32.589Z,19.3
2017-06-25T03:45:13.451Z,19.31
2017-06-25T03:45:54.350Z,19.34
2017-06-25T03:46:35.218Z,19.24
2017-06-25T03:47:16.105Z,19.22
2017-06-25T03:47:56.986Z,19.26
2017-06-25T03:48:37.852Z,19.37
2017-06-25T03:49:18.717Z,19.33
2017-06-25T03:49:59.580Z,19.31
2017-06-25T03:50:40.515Z,19.3
2017-06-25T03:51:21.385Z,19.27
2017-06-25T03:52:02.269Z,19.24
2017-06-25T03:52:43.155Z,19.27
2017-06-25T03:53:24.035Z,19.29
2017-06-25T03:54:04.891Z,19.21
2017-06-25T03:54:45.798Z,19.24
2017-06-25T03:55:26.650Z,19.16
2017-06-25T03:56:07.527Z,19.12
2017-06-25T03:56:48.422Z,19.04
2017-06-25T03:57:29.281Z,18.92
2017-06-25T03:58:10.143Z,18.9
2017-06-25T03:58:51.015Z,18.84
2017-06-25T03:59:31.890Z,18.81
2017-06-25T04:00:12.775Z,18.68
2017-06-25T04:00:53.654Z,18.68
2017-06-25T04:01:34.529Z,18.58
2017-06-25T04:02:15.399Z,18.62
2017-06-25T04:02:56.289Z,18.62
2017-06-25T04:03:37.193Z,18.62
2017-06-25T04:04:18.061Z,18.59
2017-06-25T04:04:58.919Z,18.56
2017-06-25T04:05:39.780Z,18.58
2017-06-25T04:06:20.644Z,18.59
2017-06-25T04:07:01.532Z,18.56
2017-06-25T04:07:42.435Z,18.47
2017-06-25T04:08:23.324Z,18.45
2017-06-25T04:09:04.244Z,18.43
2017-06-25T04:09:45.134Z,18.4
2017-06-25T04:10:26.000Z,18.31
2017-06-25T04:11:06.888Z,18.35
2017-06-25T04:11:47.758Z,18.23
2017-06-25T04:12:28.634Z,18.22
2017-06-25T04:13:09.521Z,18.35
2017-06-25T04:13:50.415Z,18.23
2017-06-25T04:14:31.297Z,18.23
2017-06-25T04:15:12.184Z,18.28
2017-06-25T04:15:53.080Z,18.37
2017-06-25T04:16:33.986Z,18.25
2017-06-25T04:17:14.866Z,18.25
2017-06-25T04:17:55.774Z,18.22
2017-06-25T04:18:36.646Z,18.37
2017-06-25T04:19:17.534Z,18.33
2017-06-25T04:19:58.417Z,18.29
2017-06-25T04:20:39.397Z,18.37
2017-06-25T04:21:20.285Z,18.25
2017-06-25T04:22:01.166Z,18.33
2017-06-25T04:22:42.043Z,18.35
2017-06-25T04:23:22.933Z,18.25
2017-06-25T04:24:03.808Z,18.22
2017-06-25T04:24:44.678Z,18.37
2017-06-25T04:25:25.562Z,18.28
2017-06-25T04:26:06.427Z,18.26
2017-06-25T04:26:47.284Z,18.37
2017-06-25T04:27:28.145Z,18.22
2017-06-25T04:28:09.013Z,18.28
2017-06-25T04:28:49.896Z,18.23
2017-06-25T04:29:30.776Z,18.29
2017-06-25T04:30:11.663Z,18.33
2017-06-25T04:30:52.530Z,18.34
2017-06-25T04:31:33.426Z,18.44
2017-06-25T04:32:14.315Z,18.44
2017-06-25T04:32:55.197Z,18.38
2017-06-25T04:33:36.086Z,18.38
2017-06-25T04:34:16.960Z,18.52
2017-06-25T04:34:57.846Z,18.38
2017-06-25T04:35:38.752Z,18.33
2017-06-25T04:36:19.634Z,18.4
2017-06-25T04:37:00.520Z,18.44
2017-06-25T04:37:41.420Z,18.44
2017-06-25T04:38:22.282Z,18.45
2017-06-25T04:39:03.162Z,18.47
2017-06-25T04:39:44.037Z,18.41
2017-06-25T04:40:24.921Z,18.43
2017-06-25T04:41:05.800Z,18.33
2017-06-25T04:41:46.685Z,18.31
2017-06-25T04:42:27.545Z,18.44
2017-06-25T04:43:08.430Z,18.38
2017-06-25T04:43:49.308Z,18.52
2017-06-25T04:44:30.207Z,18.56
2017-06-25T04:45:11.128Z,18.55
2017-06-25T04:45:52.027Z,18.62
2017-06-25T04:46:32.885Z,18.66
2017-06-25T04:47:13.752Z,18.66
2017-06-25T04:47:54.625Z,18.66
2017-06-25T04:48:35.520Z,18.81
2017-06-25T04:49:16.376Z,18.78
2017-06-25T04:49:57.245Z,18.78
2017-06-25T04:50:38.134Z,18.84
2017-06-25T04:51:19.028Z,18.95
2017-06-25T04:51:59.927Z,18.96
2017-06-25T04:52:40.814Z,18.89
2017-06-25T04:53:21.729Z,19.02
2017-06-25T04:54:02.600Z,19
2017-06-25T04:54:43.489Z,19.09
2017-06-25T04:55:24.408Z,19.09
2017-06-25T04:56:57.713Z,19.24
2017-06-25T04:57:38.796Z,19.33
2017-06-25T04:58:19.610Z,19.27
2017-06-25T04:59:00.487Z,19.36
2017-06-25T04:59:41.374Z,19.22
2017-06-25T05:00:22.259Z,19.29
2017-06-25T05:01:03.142Z,19.26
2017-06-25T05:01:44.023Z,19.21
2017-06-25T05:02:24.908Z,19.3
2017-06-25T05:03:05.798Z,19.39
2017-06-25T05:03:46.678Z,19.49
2017-06-25T05:04:27.556Z,19.48
2017-06-25T05:05:08.444Z,19.48
2017-06-25T05:05:49.336Z,19.48
2017-06-25T05:06:30.231Z,19.56
2017-06-25T05:07:11.118Z,19.58
2017-06-25T05:07:52.005Z,19.62
2017-06-25T05:08:32.910Z,19.67
2017-06-25T05:09:13.789Z,19.63
2017-06-25T05:09:54.682Z,19.67
2017-06-25T05:10:35.582Z,19.71
2017-06-25T05:11:16.455Z,19.73
2017-06-25T05:11:57.354Z,19.74
2017-06-25T05:12:38.243Z,19.77
2017-06-25T05:13:19.119Z,19.76
2017-06-25T05:14:00.012Z,19.69
2017-06-25T05:14:40.930Z,19.55
2017-06-25T05:15:21.814Z,19.52
2017-06-25T05:16:02.703Z,19.7
2017-06-25T05:16:43.589Z,19.67
2017-06-25T05:17:24.471Z,19.77
2017-06-25T05:18:05.353Z,19.76
2017-06-25T05:18:46.259Z,19.77
2017-06-25T05:19:27.141Z,19.71
2017-06-25T05:20:08.039Z,19.74
2017-06-25T05:20:48.923Z,19.71
2017-06-25T05:21:29.816Z,19.74
2017-06-25T05:22:10.684Z,19.71
2017-06-25T05:22:51.572Z,19.7
2017-06-25T05:23:32.459Z,19.7
2017-06-25T05:24:13.351Z,19.69
2017-06-25T05:24:54.222Z,19.85
2017-06-25T05:25:35.113Z,19.84
2017-06-25T05:26:16.048Z,19.86
2017-06-25T05:26:56.944Z,19.79
2017-06-25T05:27:37.815Z,19.71
2017-06-25T05:28:18.702Z,19.54
2017-06-25T05:28:59.588Z,19.64
2017-06-25T05:29:40.479Z,19.67
2017-06-25T05:30:21.358Z,19.7
2017-06-25T05:31:02.237Z,19.77
2017-06-25T05:31:43.151Z,19.82
2017-06-25T05:32:24.025Z,19.82
2017-06-25T05:33:04.911Z,19.84
2017-06-25T05:33:45.769Z,19.85
2017-06-25T05:34:26.663Z,19.76
2017-06-25T05:35:07.550Z,19.92
2017-06-25T05:35:48.427Z,19.91
2017-06-25T05:36:29.317Z,19.91
2017-06-25T05:37:10.183Z,19.95
2017-06-25T05:37:51.076Z,19.88
2017-06-25T05:38:31.990Z,19.86
2017-06-25T05:39:12.892Z,19.92
2017-06-25T05:39:53.785Z,19.96
2017-06-25T05:40:34.658Z,19.81
2017-06-25T05:41:15.538Z,19.82
2017-06-25T05:41:56.427Z,19.85
2017-06-25T05:42:37.316Z,19.84
2017-06-25T05:43:18.209Z,19.82
2017-06-25T05:43:59.101Z,19.94
2017-06-25T05:44:39.986Z,20.03
2017-06-25T05:45:20.873Z,20.06
2017-06-25T05:46:01.748Z,20.09
2017-06-25T05:46:42.639Z,20.09
2017-06-25T05:47:23.531Z,20.04
2017-06-25T05:48:04.416Z,20.07
2017-06-25T05:48:45.318Z,20.1
2017-06-25T05:49:26.202Z,20.07
2017-06-25T05:50:07.093Z,20.1
2017-06-25T05:50:47.990Z,20.04
2017-06-25T05:51:28.882Z,20.16
2017-06-25T05:52:09.762Z,20.1
2017-06-25T05:52:50.655Z,20.1
2017-06-25T05:53:31.556Z,20.16
2017-06-25T05:54:12.429Z,20.14
2017-06-25T05:54:53.313Z,20
2017-06-25T05:55:34.219Z,19.94
2017-06-25T05:56:15.106Z,20.1
2017-06-25T05:56:55.998Z,20.07
2017-06-25T05:57:36.901Z,20.07
2017-06-25T05:58:17.794Z,20.14
2017-06-25T05:58:58.701Z,19.99
2017-06-25T05:59:39.574Z,19.91
2017-06-25T06:00:21.295Z,20.04
2017-06-25T06:01:02.205Z,20.09
2017-06-25T06:01:43.078Z,20.18
2017-06-25T06:02:23.956Z,20.28
2017-06-25T06:03:04.841Z,20.18
2017-06-25T06:03:45.715Z,20.06
2017-06-25T06:04:26.609Z,19.85
2017-06-25T06:05:07.497Z,20.09
2017-06-25T06:05:48.387Z,20.09
2017-06-25T06:06:29.299Z,19.86
2017-06-25T06:07:10.171Z,20.06
2017-06-25T06:07:51.063Z,20.11
2017-06-25T06:08:31.979Z,20.18
2017-06-25T06:09:12.850Z,20.28
2017-06-25T06:09:53.771Z,20.31
2017-06-25T06:10:34.655Z,20.04
2017-06-25T06:11:15.542Z,20.18
2017-06-25T06:11:56.440Z,20.25
2017-06-25T06:12:37.341Z,19.94
2017-06-25T06:13:18.216Z,20.11
2017-06-25T06:13:59.123Z,20.1
2017-06-25T06:14:40.002Z,20.03
2017-06-25T06:15:20.887Z,20.13
2017-06-25T06:16:01.798Z,20.1
2017-06-25T06:16:42.712Z,20.21
2017-06-25T06:17:23.591Z,20.22
2017-06-25T06:18:04.472Z,20.06
2017-06-25T06:18:45.350Z,20.16
2017-06-25T06:19:26.266Z,20.29
2017-06-25T06:20:07.158Z,20.4
2017-06-25T06:20:48.056Z,20.41
2017-06-25T06:21:28.937Z,20.55
2017-06-25T06:22:09.816Z,20.6
2017-06-25T06:22:50.704Z,20.63
2017-06-25T06:23:31.619Z,20.51
2017-06-25T06:24:12.532Z,20.5
2017-06-25T06:24:53.437Z,20.47
2017-06-25T06:25:34.339Z,20.39
2017-06-25T06:26:15.252Z,20.31
2017-06-25T06:26:56.156Z,20.39
2017-06-25T06:27:37.035Z,20.47
2017-06-25T06:28:17.919Z,20.5
2017-06-25T06:28:58.812Z,20.55
2017-06-25T06:29:39.695Z,20.58
2017-06-25T06:30:20.602Z,20.51
2017-06-25T06:31:01.489Z,20.59
2017-06-25T06:31:42.393Z,20.51
2017-06-25T06:32:24.049Z,20.6
2017-06-25T06:33:04.947Z,20.58
2017-06-25T06:33:45.834Z,20.56
2017-06-25T06:34:26.697Z,20.5
2017-06-25T06:35:07.589Z,20.63
2017-06-25T06:35:48.460Z,20.56
2017-06-25T06:36:29.407Z,20.58
2017-06-25T06:37:10.249Z,20.63
2017-06-25T06:37:51.123Z,20.62
2017-06-25T06:38:32.027Z,20.63
2017-06-25T06:39:12.939Z,20.65
2017-06-25T06:39:53.808Z,20.75
2017-06-25T06:40:34.712Z,20.52
2017-06-25T06:41:15.586Z,20.58
2017-06-25T06:41:56.475Z,20.5
2017-06-25T06:42:37.377Z,20.58
2017-06-25T06:43:18.281Z,20.4
2017-06-25T06:43:59.153Z,20.43
2017-06-25T06:44:40.590Z,20.6
2017-06-25T06:45:21.477Z,20.66
2017-06-25T06:46:02.372Z,20.59
2017-06-25T06:46:43.252Z,20.66
2017-06-25T06:47:24.124Z,20.62
2017-06-25T06:48:05.030Z,20.56
2017-06-25T06:48:45.930Z,20.58
2017-06-25T06:49:26.805Z,20.56
2017-06-25T06:50:07.690Z,20.62
2017-06-25T06:50:48.588Z,20.37
2017-06-25T06:51:29.477Z,20.39
2017-06-25T06:52:10.394Z,20.48
2017-06-25T06:52:51.282Z,20.41
2017-06-25T06:53:32.192Z,20.47
2017-06-25T06:54:13.060Z,20.48
2017-06-25T06:54:53.959Z,20.43
2017-06-25T06:55:34.850Z,20.43
2017-06-25T06:56:15.737Z,20.44
2017-06-25T06:56:56.639Z,20.43
2017-06-25T06:57:37.530Z,20.32
2017-06-25T06:58:18.412Z,20.14
2017-06-25T06:58:59.306Z,20.07
2017-06-25T06:59:40.198Z,20.16
2017-06-25T07:00:21.086Z,20.28
2017-06-25T07:01:01.989Z,20.07
2017-06-25T07:01:42.974Z,20.21
2017-06-25T07:02:23.857Z,20.11
2017-06-25T07:03:04.748Z,20.18
2017-06-25T07:03:45.643Z,20.26
2017-06-25T07:04:26.558Z,20.47
2017-06-25T07:05:07.468Z,20.48
2017-06-25T07:05:48.389Z,20.63
2017-06-25T07:06:29.272Z,20.63
2017-06-25T07:07:10.148Z,20.74
2017-06-25T07:07:51.021Z,20.59
2017-06-25T07:08:31.860Z,20.59
2017-06-25T07:09:12.723Z,20.72
2017-06-25T07:09:53.594Z,20.6
2017-06-25T07:10:34.480Z,20.52
2017-06-25T07:11:15.356Z,20.6
2017-06-25T07:11:56.231Z,20.51
2017-06-25T07:12:37.126Z,20.18
2017-06-25T07:13:18.012Z,20.07
2017-06-25T07:13:58.901Z,20.07
2017-06-25T07:14:39.776Z,20.34
2017-06-25T07:15:20.646Z,20.29
2017-06-25T07:16:01.544Z,20.28
2017-06-25T07:16:42.420Z,20.4
2017-06-25T07:17:23.278Z,20.48
2017-06-25T07:18:04.145Z,20.62
2017-06-25T07:18:45.075Z,20.6
2017-06-25T07:19:25.957Z,20.74
2017-06-25T07:20:06.857Z,20.78
2017-06-25T07:20:47.762Z,20.74
2017-06-25T07:21:28.652Z,20.8
2017-06-25T07:22:09.562Z,20.9
2017-06-25T07:22:50.442Z,20.95
2017-06-25T07:23:31.325Z,21.02
2017-06-25T07:24:12.184Z,21.06
2017-06-25T07:24:53.054Z,20.97
2017-06-25T07:25:33.934Z,21.14
2017-06-25T07:26:14.799Z,20.97
2017-06-25T07:26:55.676Z,21.06
2017-06-25T07:27:36.544Z,21.11
2017-06-25T07:28:17.433Z,21.22
2017-06-25T07:28:58.317Z,21.12
2017-06-25T07:29:39.186Z,21.14
2017-06-25T07:30:20.058Z,21.12
2017-06-25T07:31:00.934Z,21.12
2017-06-25T07:31:41.828Z,21.14
2017-06-25T07:32:22.698Z,21.21
2017-06-25T07:33:03.561Z,21.14
2017-06-25T07:33:44.455Z,21.18
2017-06-25T07:34:25.331Z,21.17
2017-06-25T07:35:06.237Z,21.07
2017-06-25T07:35:47.110Z,21.2
2017-06-25T07:36:28.011Z,20.9
2017-06-25T07:37:08.888Z,20.92
2017-06-25T07:37:49.755Z,20.67
2017-06-25T07:38:30.637Z,20.69
2017-06-25T07:39:11.538Z,20.62
2017-06-25T07:39:52.422Z,20.74
2017-06-25T07:40:33.319Z,20.81
2017-06-25T07:41:14.214Z,21
2017-06-25T07:41:55.097Z,21.09
2017-06-25T07:42:35.987Z,21.21
2017-06-25T07:43:16.880Z,21.3
2017-06-25T07:43:57.771Z,21.42
2017-06-25T07:44:38.644Z,21.43
2017-06-25T07:45:19.509Z,21.46
2017-06-25T07:46:00.387Z,21.58
2017-06-25T07:46:41.285Z,21.61
2017-06-25T07:47:22.166Z,21.7
2017-06-25T07:48:03.043Z,21.92
2017-06-25T07:48:43.925Z,22
2017-06-25T07:49:24.810Z,22.15
2017-06-25T07:50:05.721Z,22.38
2017-06-25T07:50:46.621Z,22.35
2017-06-25T07:51:27.500Z,22.5
2017-06-25T07:52:08.390Z,22.6
2017-06-25T07:52:49.274Z,22.62
2017-06-25T07:53:30.175Z,22.87
2017-06-25T07:54:11.048Z,22.96
2017-06-25T07:54:51.926Z,23.09
2017-06-25T07:55:32.808Z,22.47
2017-06-25T07:56:13.678Z,22.54
2017-06-25T07:56:54.569Z,22.1
2017-06-25T07:57:35.449Z,22.17
2017-06-25T07:58:16.313Z,21.82
2017-06-25T07:58:57.192Z,22.13
2017-06-25T07:59:38.084Z,22.38
2017-06-25T08:00:18.966Z,22.54
2017-06-25T08:00:59.856Z,22.84
2017-06-25T08:01:40.750Z,22.7
2017-06-25T08:02:21.659Z,22.88
2017-06-25T08:03:02.549Z,22.84
2017-06-25T08:03:43.418Z,22.91
2017-06-25T08:04:24.303Z,23
2017-06-25T08:05:05.187Z,22.99
2017-06-25T08:05:46.102Z,22.9
2017-06-25T08:06:26.983Z,22.76
2017-06-25T08:07:07.866Z,22.75
2017-06-25T08:07:48.743Z,22.73
2017-06-25T08:08:29.611Z,22.72
2017-06-25T08:09:10.492Z,22.84
2017-06-25T08:09:51.374Z,22.8
2017-06-25T08:10:32.310Z,22.54
2017-06-25T08:11:13.196Z,22.73
2017-06-25T08:11:54.080Z,22.69
2017-06-25T08:12:34.968Z,22.87
2017-06-25T08:13:15.873Z,22.76
2017-06-25T08:14:49.141Z,22.66
2017-06-25T08:15:30.033Z,22.76
2017-06-25T08:16:10.924Z,22.81
2017-06-25T08:16:51.813Z,22.96
2017-06-25T08:17:32.742Z,23
2017-06-25T08:18:13.662Z,22.85
2017-06-25T08:18:54.546Z,22.66
2017-06-25T08:20:33.099Z,22.96
2017-06-25T08:21:13.983Z,23.12
2017-06-25T08:21:54.860Z,22.83
2017-06-25T08:22:35.750Z,22.53
2017-06-25T08:23:16.648Z,22.54
2017-06-25T08:23:57.541Z,22.62
2017-06-25T08:24:38.436Z,22.73
2017-06-25T08:25:19.339Z,22.81
2017-06-25T08:26:00.221Z,22.69
2017-06-25T08:26:41.081Z,22.72
2017-06-25T08:27:21.969Z,22.93
2017-06-25T08:28:02.863Z,23
2017-06-25T08:28:43.751Z,22.73
2017-06-25T08:29:24.644Z,22.84
2017-06-25T08:30:05.540Z,22.68
2017-06-25T08:30:46.410Z,22.53
2017-06-25T08:31:27.303Z,22.29
2017-06-25T08:32:08.198Z,22.43
2017-06-25T08:32:49.108Z,22.5
2017-06-25T08:33:29.990Z,22.55
2017-06-25T08:34:10.882Z,22.62
2017-06-25T08:34:51.785Z,22.54
2017-06-25T08:35:32.663Z,22.41
2017-06-25T08:36:13.560Z,22.14
2017-06-25T08:36:54.453Z,21.73
2017-06-25T08:37:35.343Z,21.95
2017-06-25T08:38:16.227Z,21.98
2017-06-25T08:38:57.121Z,22.29
2017-06-25T08:39:38.014Z,22.33
2017-06-25T08:40:18.909Z,22.45
2017-06-25T08:40:59.831Z,22.29
2017-06-25T08:41:40.672Z,22.44
2017-06-25T08:42:21.563Z,22.26
2017-06-25T08:43:02.460Z,22.35
2017-06-25T08:43:43.375Z,22.39
2017-06-25T08:44:24.265Z,22.13
2017-06-25T08:45:05.160Z,21.85
2017-06-25T08:45:46.047Z,22
2017-06-25T08:46:26.939Z,21.85
2017-06-25T08:47:07.818Z,21.91
2017-06-25T08:47:48.693Z,22.14
2017-06-25T08:48:29.595Z,22.13
2017-06-25T08:49:10.506Z,22.11
2017-06-25T08:49:51.383Z,22.11
2017-06-25T08:50:32.281Z,22.22
2017-06-25T08:51:13.171Z,22.36